GQPA/ATR METAR and TAF weather

Enter ICAO airport designator
Station Type Date Time Source
GQPA METAR 2019/06/15 09:00 UTC NOAA

GQPA 150900Z VRB02KT 8000 NSC 28/11 Q1016


Station Type Date Time Source
GQPA Decoded METAR 2019/06/15 09:00 UTC NOAA

Atar, Mauritania (GQPA) 20-31N 013-04W 224M
Jun 15, 2019 - 05:00 AM EDT / 2019.06.15 0900 UTC
Wind: Variable at 2 MPH (2 KT):0
Visibility: 4 mile(s):0
Temperature: 82 F (28 C)
Dew Point: 51 F (11 C)
Relative Humidity: 34%
Pressure (altimeter): 30.00 in. Hg (1016 hPa)
ob: GQPA 150900Z VRB02KT 8000 NSC 28/11 Q1016
cycle: 9

Station Type Date Time Source
GQPA TAF UTC NOAA

Error!

Example: see airport list